Terminal Aerodrome Forecast
Issued by NWS Cleveland, OH

Home | Current Version | Previous Version | Graphics & Text | Print | Product List | Glossary On
Versions: 1 2 3 4 5 6 7 8 9 10 11 12 13 14 15 16 17 18 19 20 21 22 23
000
FTUS41 KCLE 120400 AAA
TAFYNG
TAF AMD
KYNG 120425Z 1204/1224 35006KT P6SM OVC015
     FM120800 34006KT P6SM OVC010
     FM121000 36006KT P6SM OVC008
     FM121400 03008KT P6SM OVC010
     FM121600 03008KT P6SM OVC012
     FM122100 01007KT P6SM OVC050
     FM122300 01007KT P6SM SCT250=

USA.gov is the U.S. government's official web portal to all federal, state and local government web resources and services.